^^
Saratoga-Weather Station Historical Data
Daily Summary for October 11, 2020 Units:  Both    English   Metric
Daily Weekly Monthly Yearly Custom
  High: Low: Average:
Temperature: 55.6 °F /  13.1 °C 45.5 °F /  7.5 °C 49.1 °F /  9.5 °C
Dew Point: 46.4 °F /  8 °C 39.4 °F /  4.1 °C 43.5 °F /  6.4 °C
Humidity: 94% 57% 82%
Wind Speed: 8.9mph /  14.3km/h - 2.6mph /  4.2km/h
Wind Gust: 11mph /  17.7km/h - -
Wind- - West
Pressure: 30.2 in /  1021.3 hPa 30.1 in /  1019.3 hPa -
Precipitation: 0.01 in /  0.2 mm    
Historical Graphs
 
 
Tabular Data for October 11, 2020
Time Temperature Dew Point Pressure Wind Wind Speed Wind Gust Humidity Rainfall Rate (Hourly) solar
00:01 46 °F /  7.8 °C 41.2 °F /  5.1 °C 30.2in /  1021.0hPa West 2mph /  3.2km/h 7mph /  11.3km/h 83% 0in /  0.0mm 0 W/m2
00:06 46 °F /  7.8 °C 41.2 °F /  5.1 °C 30.2in /  1021.0hPa SSW 2mph /  3.2km/h 8mph /  12.9km/h 83% 0in /  0.0mm 0 W/m2
00:11 45.9 °F /  7.7 °C 41 °F /  5 °C 30.2in /  1021.0hPa WNW 2.9mph /  4.7km/h 9mph /  14.5km/h 83% 0in /  0.0mm 0 W/m2
00:16 45.9 °F /  7.7 °C 41 °F /  5 °C 30.1in /  1020.7hPa WNW 4.9mph /  7.9km/h 10mph /  16.1km/h 83% 0in /  0.0mm 0 W/m2
00:21 46 °F /  7.8 °C 41.2 °F /  5.1 °C 30.1in /  1020.7hPa SSW 6mph /  9.7km/h 6mph /  9.7km/h 83% 0in /  0.0mm 0 W/m2
00:26 46 °F /  7.8 °C 41.2 °F /  5.1 °C 30.2in /  1021.0hPa West 2.9mph /  4.7km/h 10mph /  16.1km/h 83% 0in /  0.0mm 0 W/m2
00:31 46 °F /  7.8 °C 41.2 °F /  5.1 °C 30.1in /  1020.7hPa West 2.9mph /  4.7km/h 6mph /  9.7km/h 83% 0in /  0.0mm 0 W/m2
00:36 46 °F /  7.8 °C 41.2 °F /  5.1 °C 30.1in /  1020.7hPa West 6mph /  9.7km/h 9mph /  14.5km/h 83% 0in /  0.0mm 0 W/m2
00:41 46 °F /  7.8 °C 41.2 °F /  5.1 °C 30.1in /  1020.7hPa SSE 2mph /  3.2km/h 6mph /  9.7km/h 83% 0in /  0.0mm 0 W/m2
00:46 46 °F /  7.8 °C 41.2 °F /  5.1 °C 30.1in /  1020.7hPa SE 2.9mph /  4.7km/h 9mph /  14.5km/h 83% 0in /  0.0mm 0 W/m2
00:51 46.2 °F /  7.9 °C 41.4 °F /  5.2 °C 30.1in /  1020.7hPa West 4mph /  6.4km/h 7mph /  11.3km/h 83% 0in /  0.0mm 0 W/m2
00:56 46.4 °F /  8 °C 41.5 °F /  5.3 °C 30.1in /  1020.7hPa WNW 2.9mph /  4.7km/h 8mph /  12.9km/h 83% 0in /  0.0mm 0 W/m2
01:01 46.6 °F /  8.1 °C 41.7 °F /  5.4 °C 30.1in /  1020.7hPa WSW 0.9mph /  1.4km/h 6mph /  9.7km/h 83% 0in /  0.0mm 0 W/m2
01:06 46.6 °F /  8.1 °C 41.7 °F /  5.4 °C 30.1in /  1020.7hPa WSW 2mph /  3.2km/h 8mph /  12.9km/h 83% 0in /  0.0mm 0 W/m2
01:11 46.6 °F /  8.1 °C 41.7 °F /  5.4 °C 30.1in /  1020.7hPa NW 2.9mph /  4.7km/h 9mph /  14.5km/h 83% 0in /  0.0mm 0 W/m2
01:16 46.6 °F /  8.1 °C 41.7 °F /  5.4 °C 30.1in /  1020.7hPa WNW 2.9mph /  4.7km/h 4mph /  6.4km/h 83% 0in /  0.0mm 0 W/m2
01:21 46.6 °F /  8.1 °C 41.7 °F /  5.4 °C 30.1in /  1020.7hPa WSW 2.9mph /  4.7km/h 7mph /  11.3km/h 83% 0in /  0.0mm 0 W/m2
01:26 46.2 °F /  7.9 °C 41.7 °F /  5.4 °C 30.1in /  1020.7hPa SW 4mph /  6.4km/h 9mph /  14.5km/h 84% 0in /  0.0mm 0 W/m2
01:31 46.2 °F /  7.9 °C 41.7 °F /  5.4 °C 30.1in /  1020.7hPa West 2mph /  3.2km/h 6mph /  9.7km/h 84% 0in /  0.0mm 0 W/m2
01:36 46.2 °F /  7.9 °C 41.7 °F /  5.4 °C 30.1in /  1020.3hPa SW 2mph /  3.2km/h 6mph /  9.7km/h 84% 0in /  0.0mm 0 W/m2
01:41 46 °F /  7.8 °C 41.7 °F /  5.4 °C 30.1in /  1020.7hPa NW 2.9mph /  4.7km/h 11mph /  17.7km/h 85% 0in /  0.0mm 0 W/m2
01:47 46 °F /  7.8 °C 41.7 °F /  5.4 °C 30.1in /  1020.7hPa WNW 4.9mph /  7.9km/h 5mph /  8km/h 85% 0in /  0.0mm 0 W/m2
01:52 46 °F /  7.8 °C 41.7 °F /  5.4 °C 30.1in /  1020.3hPa NW 4mph /  6.4km/h 10mph /  16.1km/h 85% 0in /  0.0mm 0 W/m2
01:57 46 °F /  7.8 °C 42.1 °F /  5.6 °C 30.1in /  1020.3hPa West 8.9mph /  14.3km/h 9mph /  14.5km/h 86% 0in /  0.0mm 0 W/m2
02:02 46 °F /  7.8 °C 42.1 °F /  5.6 °C 30.1in /  1020.3hPa West 4mph /  6.4km/h 9mph /  14.5km/h 86% 0in /  0.0mm 0 W/m2
02:07 46 °F /  7.8 °C 42.1 °F /  5.6 °C 30.1in /  1020.3hPa West 6mph /  9.7km/h 9mph /  14.5km/h 86% 0in /  0.0mm 0 W/m2
02:12 46 °F /  7.8 °C 42.1 °F /  5.6 °C 30.1in /  1020.3hPa West 4mph /  6.4km/h 7mph /  11.3km/h 86% 0in /  0.0mm 0 W/m2
02:17 45.9 °F /  7.7 °C 41.9 °F /  5.5 °C 30.1in /  1020.3hPa WNW 2.9mph /  4.7km/h 9mph /  14.5km/h 86% 0in /  0.0mm 0 W/m2
02:22 45.9 °F /  7.7 °C 41.9 °F /  5.5 °C 30.1in /  1020.3hPa West 4mph /  6.4km/h 9mph /  14.5km/h 86% 0in /  0.0mm 0 W/m2
02:27 45.9 °F /  7.7 °C 42.3 °F /  5.7 °C 30.1in /  1020.0hPa WSW 4.9mph /  7.9km/h 8mph /  12.9km/h 87% 0in /  0.0mm 0 W/m2
02:32 45.9 °F /  7.7 °C 42.3 °F /  5.7 °C 30.1in /  1020.0hPa WSW 2.9mph /  4.7km/h 8mph /  12.9km/h 87% 0in /  0.0mm 0 W/m2
02:37 45.9 °F /  7.7 °C 42.3 °F /  5.7 °C 30.1in /  1020.0hPa West 6mph /  9.7km/h 10mph /  16.1km/h 87% 0in /  0.0mm 0 W/m2
02:42 45.9 °F /  7.7 °C 42.3 °F /  5.7 °C 30.1in /  1020.0hPa WSW 4.9mph /  7.9km/h 8mph /  12.9km/h 87% 0in /  0.0mm 0 W/m2
02:47 45.9 °F /  7.7 °C 42.3 °F /  5.7 °C 30.1in /  1020.0hPa WNW 2mph /  3.2km/h 11mph /  17.7km/h 87% 0in /  0.0mm 0 W/m2
02:52 46 °F /  7.8 °C 42.4 °F /  5.8 °C 30.1in /  1020.0hPa WNW 6.9mph /  11.1km/h 7mph /  11.3km/h 87% 0in /  0.0mm 0 W/m2
02:57 46 °F /  7.8 °C 42.4 °F /  5.8 °C 30.1in /  1020.0hPa WNW 2.9mph /  4.7km/h 11mph /  17.7km/h 87% 0in /  0.0mm 0 W/m2
03:02 45.9 °F /  7.7 °C 42.3 °F /  5.7 °C 30.1in /  1020.0hPa WNW 6.9mph /  11.1km/h 7mph /  11.3km/h 87% 0in /  0.0mm 0 W/m2
03:07 45.9 °F /  7.7 °C 42.3 °F /  5.7 °C 30.1in /  1020.0hPa West 0.9mph /  1.4km/h 6mph /  9.7km/h 87% 0in /  0.0mm 0 W/m2
03:12 45.7 °F /  7.6 °C 42.1 °F /  5.6 °C 30.1in /  1020.0hPa West 4mph /  6.4km/h 11mph /  17.7km/h 87% 0in /  0.0mm 0 W/m2
03:17 45.9 °F /  7.7 °C 42.4 °F /  5.8 °C 30.1in /  1020.0hPa NW 4.9mph /  7.9km/h 8mph /  12.9km/h 88% 0in /  0.0mm 0 W/m2
03:22 45.9 °F /  7.7 °C 42.4 °F /  5.8 °C 30.1in /  1020.0hPa West 2.9mph /  4.7km/h 9mph /  14.5km/h 88% 0in /  0.0mm 0 W/m2
03:27 46 °F /  7.8 °C 42.6 °F /  5.9 °C 30.1in /  1020.0hPa WNW 6.9mph /  11.1km/h 9mph /  14.5km/h 88% 0in /  0.0mm 0 W/m2
03:32 46.2 °F /  7.9 °C 42.8 °F /  6 °C 30.1in /  1020.0hPa WNW 2.9mph /  4.7km/h 9mph /  14.5km/h 88% 0in /  0.0mm 0 W/m2
03:37 46 °F /  7.8 °C 42.6 °F /  5.9 °C 30.1in /  1020.0hPa West 2.9mph /  4.7km/h 10mph /  16.1km/h 88% 0in /  0.0mm 0 W/m2
03:42 46 °F /  7.8 °C 43 °F /  6.1 °C 30.1in /  1020.0hPa West 2.9mph /  4.7km/h 6mph /  9.7km/h 89% 0in /  0.0mm 0 W/m2
03:47 45.9 °F /  7.7 °C 42.8 °F /  6 °C 30.1in /  1020.0hPa West 4mph /  6.4km/h 10mph /  16.1km/h 89% 0.01in /  0.2mm 0 W/m2
03:52 45.7 °F /  7.6 °C 43 °F /  6.1 °C 30.1in /  1019.6hPa West 6mph /  9.7km/h 7mph /  11.3km/h 90% 0.01in /  0.2mm 0 W/m2
03:57 45.7 °F /  7.6 °C 43 °F /  6.1 °C 30.1in /  1019.6hPa WNW 0.9mph /  1.4km/h 8mph /  12.9km/h 90% 0.01in /  0.2mm 0 W/m2
04:02 45.7 °F /  7.6 °C 43.2 °F /  6.2 °C 30.1in /  1019.6hPa WNW 2.9mph /  4.7km/h 6mph /  9.7km/h 91% 0.01in /  0.2mm 0 W/m2
04:07 45.5 °F /  7.5 °C 43 °F /  6.1 °C 30.1in /  1019.6hPa West 2mph /  3.2km/h 8mph /  12.9km/h 91% 0.01in /  0.2mm 0 W/m2
04:12 45.5 °F /  7.5 °C 43 °F /  6.1 °C 30.1in /  1019.6hPa SW 0.9mph /  1.4km/h 4mph /  6.4km/h 91% 0.01in /  0.2mm 0 W/m2
04:17 45.5 °F /  7.5 °C 43 °F /  6.1 °C 30.1in /  1019.6hPa SSW 2.9mph /  4.7km/h 9mph /  14.5km/h 91% 0.01in /  0.2mm 0 W/m2
04:22 45.5 °F /  7.5 °C 43 °F /  6.1 °C 30.1in /  1019.6hPa WNW 2mph /  3.2km/h 8mph /  12.9km/h 91% 0.01in /  0.2mm 0 W/m2
04:27 45.5 °F /  7.5 °C 43 °F /  6.1 °C 30.1in /  1020.0hPa WNW 0.9mph /  1.4km/h 6mph /  9.7km/h 91% 0.01in /  0.2mm 0 W/m2
04:32 45.7 °F /  7.6 °C 43.2 °F /  6.2 °C 30.1in /  1019.6hPa WSW 2.9mph /  4.7km/h 3mph /  4.8km/h 91% 0.01in /  0.2mm 0 W/m2
04:37 45.7 °F /  7.6 °C 43.2 °F /  6.2 °C 30.1in /  1019.6hPa WSW 2mph /  3.2km/h 5mph /  8km/h 91% 0.01in /  0.2mm 0 W/m2
04:42 45.7 °F /  7.6 °C 43.2 °F /  6.2 °C 30.1in /  1019.6hPa West 4mph /  6.4km/h 7mph /  11.3km/h 91% 0.01in /  0.2mm 0 W/m2
04:47 45.7 °F /  7.6 °C 43.2 °F /  6.2 °C 30.1in /  1019.6hPa West 2mph /  3.2km/h 7mph /  11.3km/h 91% 0in /  0.0mm 0 W/m2
04:52 45.7 °F /  7.6 °C 43.2 °F /  6.2 °C 30.1in /  1019.6hPa West 2mph /  3.2km/h 6mph /  9.7km/h 91% 0in /  0.0mm 0 W/m2
04:57 45.7 °F /  7.6 °C 43.5 °F /  6.4 °C 30.1in /  1019.6hPa West 2mph /  3.2km/h 4mph /  6.4km/h 92% 0in /  0.0mm 0 W/m2
05:02 45.7 °F /  7.6 °C 43.5 °F /  6.4 °C 30.1in /  1019.6hPa West 2mph /  3.2km/h 6mph /  9.7km/h 92% 0in /  0.0mm 0 W/m2
05:07 45.7 °F /  7.6 °C 43.5 °F /  6.4 °C 30.1in /  1019.6hPa WSW 2.9mph /  4.7km/h 8mph /  12.9km/h 92% 0in /  0.0mm 0 W/m2
05:12 45.7 °F /  7.6 °C 43.5 °F /  6.4 °C 30.1in /  1019.6hPa WSW 4.9mph /  7.9km/h 9mph /  14.5km/h 92% 0in /  0.0mm 0 W/m2
05:17 45.7 °F /  7.6 °C 43.5 °F /  6.4 °C 30.1in /  1019.6hPa West 4mph /  6.4km/h 7mph /  11.3km/h 92% 0in /  0.0mm 0 W/m2
05:22 45.7 °F /  7.6 °C 43.5 °F /  6.4 °C 30.1in /  1019.6hPa West 0.9mph /  1.4km/h 9mph /  14.5km/h 92% 0in /  0.0mm 0 W/m2
05:27 45.7 °F /  7.6 °C 43.5 °F /  6.4 °C 30.1in /  1019.6hPa WSW 2.9mph /  4.7km/h 8mph /  12.9km/h 92% 0in /  0.0mm 0 W/m2
05:32 45.7 °F /  7.6 °C 43.5 °F /  6.4 °C 30.1in /  1019.6hPa WNW 2mph /  3.2km/h 7mph /  11.3km/h 92% 0in /  0.0mm 0 W/m2
05:37 45.7 °F /  7.6 °C 43.5 °F /  6.4 °C 30.1in /  1019.6hPa NW 2.9mph /  4.7km/h 8mph /  12.9km/h 92% 0in /  0.0mm 0 W/m2
05:42 45.7 °F /  7.6 °C 43.5 °F /  6.4 °C 30.1in /  1019.6hPa WSW 2.9mph /  4.7km/h 7mph /  11.3km/h 92% 0in /  0.0mm 0 W/m2
05:47 45.9 °F /  7.7 °C 43.9 °F /  6.6 °C 30.1in /  1019.6hPa WNW 2.9mph /  4.7km/h 8mph /  12.9km/h 93% 0in /  0.0mm 0 W/m2
05:52 45.9 °F /  7.7 °C 43.9 °F /  6.6 °C 30.1in /  1019.6hPa NW 2.9mph /  4.7km/h 6mph /  9.7km/h 93% 0in /  0.0mm 0 W/m2
05:57 45.9 °F /  7.7 °C 43.9 °F /  6.6 °C 30.1in /  1019.6hPa West 2.9mph /  4.7km/h 7mph /  11.3km/h 93% 0in /  0.0mm 0 W/m2
06:02 46 °F /  7.8 °C 44.1 °F /  6.7 °C 30.1in /  1019.6hPa WSW 2mph /  3.2km/h 6mph /  9.7km/h 93% 0in /  0.0mm 0 W/m2
06:08 46 °F /  7.8 °C 44.1 °F /  6.7 °C 30.1in /  1019.6hPa Calm   2mph /  3.2km/h 93% 0in /  0.0mm 0 W/m2
06:13 45.9 °F /  7.7 °C 43.9 °F /  6.6 °C 30.1in /  1019.6hPa Calm   3mph /  4.8km/h 93% 0in /  0.0mm 0 W/m2
06:18 45.9 °F /  7.7 °C 43.9 °F /  6.6 °C 30.1in /  1019.6hPa WNW 2mph /  3.2km/h 3mph /  4.8km/h 93% 0in /  0.0mm 0 W/m2
06:23 46 °F /  7.8 °C 44.1 °F /  6.7 °C 30.1in /  1019.6hPa WNW 0.9mph /  1.4km/h 4mph /  6.4km/h 93% 0in /  0.0mm 0 W/m2
06:28 46 °F /  7.8 °C 44.1 °F /  6.7 °C 30.1in /  1019.6hPa WNW 0.9mph /  1.4km/h 2mph /  3.2km/h 93% 0in /  0.0mm 0 W/m2
06:33 46 °F /  7.8 °C 44.1 °F /  6.7 °C 30.1in /  1019.6hPa Calm   1mph /  1.6km/h 93% 0in /  0.0mm 0 W/m2
06:38 46 °F /  7.8 °C 44.1 °F /  6.7 °C 30.1in /  1019.6hPa Calm   2mph /  3.2km/h 93% 0in /  0.0mm 0 W/m2
06:43 46 °F /  7.8 °C 44.1 °F /  6.7 °C 30.1in /  1019.6hPa Calm   1mph /  1.6km/h 93% 0in /  0.0mm 0 W/m2
06:48 46 °F /  7.8 °C 44.1 °F /  6.7 °C 30.1in /  1019.6hPa WNW 0.9mph /  1.4km/h 1mph /  1.6km/h 93% 0in /  0.0mm 0 W/m2
06:53 46 °F /  7.8 °C 44.1 °F /  6.7 °C 30.1in /  1019.6hPa Calm   1mph /  1.6km/h 93% 0in /  0.0mm 0 W/m2
06:58 46 °F /  7.8 °C 44.1 °F /  6.7 °C 30.1in /  1019.6hPa Calm   1mph /  1.6km/h 93% 0in /  0.0mm 0 W/m2
07:03 46 °F /  7.8 °C 44.1 °F /  6.7 °C 30.1in /  1019.6hPa Calm     93% 0in /  0.0mm 0 W/m2
07:08 46 °F /  7.8 °C 44.1 °F /  6.7 °C 30.1in /  1019.6hPa Calm   1mph /  1.6km/h 93% 0in /  0.0mm 0 W/m2
07:13 46 °F /  7.8 °C 44.1 °F /  6.7 °C 30.1in /  1019.6hPa Calm     93% 0in /  0.0mm 0 W/m2
07:18 46 °F /  7.8 °C 44.4 °F /  6.9 °C 30.1in /  1019.6hPa Calm     94% 0in /  0.0mm 0 W/m2
07:23 46 °F /  7.8 °C 44.4 °F /  6.9 °C 30.1in /  1019.6hPa WNW 2mph /  3.2km/h 2mph /  3.2km/h 94% 0in /  0.0mm 0 W/m2
07:28 46 °F /  7.8 °C 44.4 °F /  6.9 °C 30.1in /  1019.6hPa WNW 0.9mph /  1.4km/h 1mph /  1.6km/h 94% 0in /  0.0mm 0 W/m2
07:33 46 °F /  7.8 °C 44.4 °F /  6.9 °C 30.1in /  1019.6hPa Calm     94% 0in /  0.0mm 0 W/m2
07:38 46 °F /  7.8 °C 44.4 °F /  6.9 °C 30.1in /  1019.6hPa Calm     94% 0in /  0.0mm 0 W/m2
07:43 46 °F /  7.8 °C 44.4 °F /  6.9 °C 30.1in /  1019.6hPa Calm     94% 0in /  0.0mm 0 W/m2
07:48 46 °F /  7.8 °C 44.4 °F /  6.9 °C 30.1in /  1019.6hPa Calm     94% 0in /  0.0mm 0 W/m2
07:53 46 °F /  7.8 °C 44.4 °F /  6.9 °C 30.1in /  1019.6hPa WNW 2mph /  3.2km/h 2mph /  3.2km/h 94% 0in /  0.0mm 5 W/m2
07:58 46 °F /  7.8 °C 44.4 °F /  6.9 °C 30.1in /  1019.6hPa WNW 0.9mph /  1.4km/h 3mph /  4.8km/h 94% 0in /  0.0mm 7 W/m2
08:03 46.2 °F /  7.9 °C 44.6 °F /  7 °C 30.1in /  1019.6hPa WNW 0.9mph /  1.4km/h 3mph /  4.8km/h 94% 0in /  0.0mm 7 W/m2
08:08 46.2 °F /  7.9 °C 44.6 °F /  7 °C 30.1in /  1019.6hPa Calm   3mph /  4.8km/h 94% 0in /  0.0mm 9 W/m2
08:13 46.4 °F /  8 °C 44.8 °F /  7.1 °C 30.1in /  1019.6hPa WNW 2.9mph /  4.7km/h 3mph /  4.8km/h 94% 0in /  0.0mm 12 W/m2
08:18 46.4 °F /  8 °C 44.8 °F /  7.1 °C 30.1in /  1019.6hPa West 0.9mph /  1.4km/h 2mph /  3.2km/h 94% 0in /  0.0mm 12 W/m2
08:23 46.6 °F /  8.1 °C 45 °F /  7.2 °C 30.1in /  1019.6hPa Calm   2mph /  3.2km/h 94% 0in /  0.0mm 11 W/m2
08:28 46.6 °F /  8.1 °C 45 °F /  7.2 °C 30.1in /  1019.6hPa West 2mph /  3.2km/h 2mph /  3.2km/h 94% 0in /  0.0mm 11 W/m2
08:33 46.6 °F /  8.1 °C 45 °F /  7.2 °C 30.1in /  1019.6hPa Calm   2mph /  3.2km/h 94% 0in /  0.0mm 11 W/m2
08:38 46.6 °F /  8.1 °C 45 °F /  7.2 °C 30.1in /  1019.6hPa WNW 0.9mph /  1.4km/h 2mph /  3.2km/h 94% 0in /  0.0mm 12 W/m2
08:43 46.8 °F /  8.2 °C 45.1 °F /  7.3 °C 30.1in /  1019.6hPa WNW 0.9mph /  1.4km/h 2mph /  3.2km/h 94% 0in /  0.0mm 19 W/m2
08:48 46.8 °F /  8.2 °C 45.1 °F /  7.3 °C 30.1in /  1020.0hPa Calm   3mph /  4.8km/h 94% 0in /  0.0mm 33 W/m2
08:53 46.8 °F /  8.2 °C 45.1 °F /  7.3 °C 30.1in /  1020.0hPa Calm   2mph /  3.2km/h 94% 0in /  0.0mm 42 W/m2
08:58 46.8 °F /  8.2 °C 45.1 °F /  7.3 °C 30.1in /  1020.0hPa NW 0.9mph /  1.4km/h 1mph /  1.6km/h 94% 0in /  0.0mm 44 W/m2
09:03 46.9 °F /  8.3 °C 45.3 °F /  7.4 °C 30.1in /  1020.0hPa Calm   1mph /  1.6km/h 94% 0in /  0.0mm 49 W/m2
09:08 46.9 °F /  8.3 °C 45.3 °F /  7.4 °C 30.1in /  1020.0hPa Calm   1mph /  1.6km/h 94% 0in /  0.0mm 47 W/m2
09:13 47.1 °F /  8.4 °C 45.5 °F /  7.5 °C 30.1in /  1020.0hPa NW 0.9mph /  1.4km/h 1mph /  1.6km/h 94% 0in /  0.0mm 42 W/m2
09:18 47.1 °F /  8.4 °C 45.5 °F /  7.5 °C 30.1in /  1020.0hPa West 2mph /  3.2km/h 3mph /  4.8km/h 94% 0in /  0.0mm 63 W/m2
09:23 47.3 °F /  8.5 °C 45.7 °F /  7.6 °C 30.1in /  1020.0hPa WNW 2.9mph /  4.7km/h 4mph /  6.4km/h 94% 0in /  0.0mm 67 W/m2
09:28 47.3 °F /  8.5 °C 45.7 °F /  7.6 °C 30.1in /  1020.3hPa WNW 0.9mph /  1.4km/h 2mph /  3.2km/h 94% 0in /  0.0mm 54 W/m2
09:33 47.5 °F /  8.6 °C 45.9 °F /  7.7 °C 30.1in /  1020.0hPa Calm   2mph /  3.2km/h 94% 0in /  0.0mm 47 W/m2
09:38 47.5 °F /  8.6 °C 45.9 °F /  7.7 °C 30.1in /  1020.3hPa WNW 0.9mph /  1.4km/h 1mph /  1.6km/h 94% 0in /  0.0mm 65 W/m2
09:43 47.7 °F /  8.7 °C 46 °F /  7.8 °C 30.1in /  1020.3hPa Calm     94% 0in /  0.0mm 81 W/m2
09:48 47.7 °F /  8.7 °C 46 °F /  7.8 °C 30.1in /  1020.0hPa Calm     94% 0in /  0.0mm 60 W/m2
09:53 47.8 °F /  8.8 °C 45.9 °F /  7.7 °C 30.1in /  1020.3hPa Calm     93% 0in /  0.0mm 76 W/m2
09:58 47.8 °F /  8.8 °C 45.9 °F /  7.7 °C 30.1in /  1020.3hPa Calm     93% 0in /  0.0mm 109 W/m2
10:03 48 °F /  8.9 °C 46 °F /  7.8 °C 30.1in /  1020.3hPa Calm   2mph /  3.2km/h 93% 0in /  0.0mm 132 W/m2
10:08 48.2 °F /  9 °C 46 °F /  7.8 °C 30.1in /  1020.0hPa WNW 2mph /  3.2km/h 3mph /  4.8km/h 92% 0in /  0.0mm 153 W/m2
10:13 48.6 °F /  9.2 °C 46.4 °F /  8 °C 30.1in /  1020.3hPa West 2mph /  3.2km/h 2mph /  3.2km/h 92% 0in /  0.0mm 283 W/m2
10:18 48.7 °F /  9.3 °C 46.2 °F /  7.9 °C 30.1in /  1020.3hPa Calm     91% 0in /  0.0mm 149 W/m2
10:23 48.9 °F /  9.4 °C 46 °F /  7.8 °C 30.1in /  1020.3hPa WNW 0.9mph /  1.4km/h 6mph /  9.7km/h 90% 0in /  0.0mm 77 W/m2
10:28 49.1 °F /  9.5 °C 46 °F /  7.8 °C 30.1in /  1020.3hPa West 2mph /  3.2km/h 4mph /  6.4km/h 89% 0in /  0.0mm 329 W/m2
10:33 49.3 °F /  9.6 °C 46.2 °F /  7.9 °C 30.1in /  1020.3hPa WNW 2mph /  3.2km/h 7mph /  11.3km/h 89% 0in /  0.0mm 336 W/m2
10:38 49.6 °F /  9.8 °C 45.9 °F /  7.7 °C 30.1in /  1020.3hPa West 4mph /  6.4km/h 7mph /  11.3km/h 87% 0in /  0.0mm 367 W/m2
10:43 49.6 °F /  9.8 °C 45.9 °F /  7.7 °C 30.1in /  1020.3hPa NW 2mph /  3.2km/h 4mph /  6.4km/h 87% 0in /  0.0mm 104 W/m2
10:48 50 °F /  10 °C 46.2 °F /  7.9 °C 30.1in /  1020.3hPa WNW 0.9mph /  1.4km/h 7mph /  11.3km/h 87% 0in /  0.0mm 476 W/m2
10:53 50.4 °F /  10.2 °C 46.4 °F /  8 °C 30.1in /  1020.3hPa West 2mph /  3.2km/h 4mph /  6.4km/h 86% 0in /  0.0mm 566 W/m2
10:58 50.5 °F /  10.3 °C 46.2 °F /  7.9 °C 30.1in /  1020.3hPa WSW 6mph /  9.7km/h 6mph /  9.7km/h 85% 0in /  0.0mm 237 W/m2
11:03 50.5 °F /  10.3 °C 46.2 °F /  7.9 °C 30.1in /  1020.3hPa Calm   2mph /  3.2km/h 85% 0in /  0.0mm 243 W/m2
11:08 50.5 °F /  10.3 °C 46.2 °F /  7.9 °C 30.1in /  1020.3hPa WNW 2mph /  3.2km/h 3mph /  4.8km/h 85% 0in /  0.0mm 58 W/m2
11:13 50.4 °F /  10.2 °C 45.7 °F /  7.6 °C 30.1in /  1020.3hPa WSW 2mph /  3.2km/h 3mph /  4.8km/h 84% 0in /  0.0mm 53 W/m2
11:18 50.4 °F /  10.2 °C 45.7 °F /  7.6 °C 30.1in /  1020.7hPa WNW 2.9mph /  4.7km/h 4mph /  6.4km/h 84% 0in /  0.0mm 72 W/m2
11:23 50.2 °F /  10.1 °C 45.9 °F /  7.7 °C 30.1in /  1020.7hPa WNW 4.9mph /  7.9km/h 5mph /  8km/h 85% 0in /  0.0mm 105 W/m2
11:28 50 °F /  10 °C 45.7 °F /  7.6 °C 30.1in /  1020.3hPa WNW 2mph /  3.2km/h 4mph /  6.4km/h 85% 0in /  0.0mm 113 W/m2
11:33 50 °F /  10 °C 45.3 °F /  7.4 °C 30.1in /  1020.3hPa WNW 2mph /  3.2km/h 6mph /  9.7km/h 84% 0in /  0.0mm 142 W/m2
11:38 50 °F /  10 °C 45.7 °F /  7.6 °C 30.1in /  1020.3hPa West 2mph /  3.2km/h 3mph /  4.8km/h 85% 0in /  0.0mm 144 W/m2
11:43 50.2 °F /  10.1 °C 45.5 °F /  7.5 °C 30.1in /  1020.3hPa NW 0.9mph /  1.4km/h 4mph /  6.4km/h 84% 0in /  0.0mm 137 W/m2
11:48 50.4 °F /  10.2 °C 45.7 °F /  7.6 °C 30.1in /  1020.3hPa West 2mph /  3.2km/h 6mph /  9.7km/h 84% 0in /  0.0mm 216 W/m2
11:53 50.5 °F /  10.3 °C 45.3 °F /  7.4 °C 30.1in /  1020.3hPa WNW 2mph /  3.2km/h 3mph /  4.8km/h 82% 0in /  0.0mm 675 W/m2
11:58 50.7 °F /  10.4 °C 45.1 °F /  7.3 °C 30.1in /  1020.3hPa West 2.9mph /  4.7km/h 5mph /  8km/h 81% 0in /  0.0mm 149 W/m2
12:03 50.9 °F /  10.5 °C 44.6 °F /  7 °C 30.1in /  1020.3hPa WNW 0.9mph /  1.4km/h 4mph /  6.4km/h 79% 0in /  0.0mm 84 W/m2
12:08 51.1 °F /  10.6 °C 45.1 °F /  7.3 °C 30.1in /  1020.3hPa NW 0.9mph /  1.4km/h 2mph /  3.2km/h 80% 0in /  0.0mm 69 W/m2
12:13 51.1 °F /  10.6 °C 45.1 °F /  7.3 °C 30.1in /  1020.3hPa NW 2.9mph /  4.7km/h 4mph /  6.4km/h 80% 0in /  0.0mm 56 W/m2
12:18 50.7 °F /  10.4 °C 44.1 °F /  6.7 °C 30.1in /  1020.3hPa WNW 0.9mph /  1.4km/h 5mph /  8km/h 78% 0in /  0.0mm 63 W/m2
12:23 50.5 °F /  10.3 °C 43.9 °F /  6.6 °C 30.1in /  1020.3hPa NW 4.9mph /  7.9km/h 6mph /  9.7km/h 78% 0in /  0.0mm 97 W/m2
12:28 50.5 °F /  10.3 °C 43.5 °F /  6.4 °C 30.1in /  1020.0hPa West 2mph /  3.2km/h 4mph /  6.4km/h 77% 0in /  0.0mm 72 W/m2
12:33 51.1 °F /  10.6 °C 43.5 °F /  6.4 °C 30.1in /  1020.0hPa WSW 2.9mph /  4.7km/h 4mph /  6.4km/h 75% 0in /  0.0mm 434 W/m2
12:39 51.4 °F /  10.8 °C 43.5 °F /  6.4 °C 30.1in /  1020.0hPa WSW 2mph /  3.2km/h 4mph /  6.4km/h 74% 0in /  0.0mm 555 W/m2
12:44 51.6 °F /  10.9 °C 42.4 °F /  5.8 °C 30.1in /  1020.0hPa WSW 0.9mph /  1.4km/h 4mph /  6.4km/h 71% 0in /  0.0mm 594 W/m2
12:49 52.2 °F /  11.2 °C 43.3 °F /  6.3 °C 30.1in /  1020.0hPa WNW 2mph /  3.2km/h 4mph /  6.4km/h 72% 0in /  0.0mm 647 W/m2
12:54 52.9 °F /  11.6 °C 43 °F /  6.1 °C 30.1in /  1020.0hPa NW 2mph /  3.2km/h 4mph /  6.4km/h 69% 0in /  0.0mm 691 W/m2
12:59 53.2 °F /  11.8 °C 43.3 °F /  6.3 °C 30.1in /  1020.0hPa WSW 2.9mph /  4.7km/h 4mph /  6.4km/h 69% 0in /  0.0mm 744 W/m2
13:04 53.8 °F /  12.1 °C 43.9 °F /  6.6 °C 30.1in /  1020.0hPa West 2.9mph /  4.7km/h 8mph /  12.9km/h 69% 0in /  0.0mm 643 W/m2
13:09 54 °F /  12.2 °C 42.1 °F /  5.6 °C 30.1in /  1020.0hPa WNW 2.9mph /  4.7km/h 8mph /  12.9km/h 64% 0in /  0.0mm 693 W/m2
13:14 53.8 °F /  12.1 °C 41 °F /  5 °C 30.1in /  1020.0hPa West 2mph /  3.2km/h 5mph /  8km/h 62% 0in /  0.0mm 74 W/m2
13:19 53.2 °F /  11.8 °C 41.7 °F /  5.4 °C 30.1in /  1020.0hPa West 2.9mph /  4.7km/h 6mph /  9.7km/h 65% 0in /  0.0mm 76 W/m2
13:24 53.2 °F /  11.8 °C 42.3 °F /  5.7 °C 30.1in /  1020.0hPa WNW 2mph /  3.2km/h 3mph /  4.8km/h 66% 0in /  0.0mm 582 W/m2
13:29 53.2 °F /  11.8 °C 41.7 °F /  5.4 °C 30.1in /  1019.6hPa West 2.9mph /  4.7km/h 7mph /  11.3km/h 65% 0in /  0.0mm 591 W/m2
13:34 53.4 °F /  11.9 °C 41.5 °F /  5.3 °C 30.1in /  1019.6hPa WNW 2.9mph /  4.7km/h 5mph /  8km/h 64% 0in /  0.0mm 621 W/m2
13:39 53.8 °F /  12.1 °C 42.3 °F /  5.7 °C 30.1in /  1019.6hPa WSW 2.9mph /  4.7km/h 7mph /  11.3km/h 65% 0in /  0.0mm 659 W/m2
13:44 54.1 °F /  12.3 °C 42.3 °F /  5.7 °C 30.1in /  1019.6hPa WNW 4.9mph /  7.9km/h 5mph /  8km/h 64% 0in /  0.0mm 680 W/m2
13:49 54.7 °F /  12.6 °C 41.9 °F /  5.5 °C 30.1in /  1019.6hPa ENE 2.9mph /  4.7km/h 10mph /  16.1km/h 62% 0in /  0.0mm 153 W/m2
13:54 54.9 °F /  12.7 °C 41.7 °F /  5.4 °C 30.1in /  1019.6hPa ENE 2mph /  3.2km/h 4mph /  6.4km/h 61% 0in /  0.0mm 148 W/m2
13:59 54.9 °F /  12.7 °C 41.2 °F /  5.1 °C 30.1in /  1019.6hPa WNW 4mph /  6.4km/h 4mph /  6.4km/h 60% 0in /  0.0mm 91 W/m2
14:04 54.3 °F /  12.4 °C 39.4 °F /  4.1 °C 30.1in /  1019.6hPa WNW 4mph /  6.4km/h 4mph /  6.4km/h 57% 0in /  0.0mm 113 W/m2
14:09 54 °F /  12.2 °C 39.9 °F /  4.4 °C 30.1in /  1019.6hPa WNW 2.9mph /  4.7km/h 4mph /  6.4km/h 59% 0in /  0.0mm 98 W/m2
14:14 54 °F /  12.2 °C 41.2 °F /  5.1 °C 30.1in /  1019.6hPa WNW 2mph /  3.2km/h 7mph /  11.3km/h 62% 0in /  0.0mm 120 W/m2
14:19 54.1 °F /  12.3 °C 41.4 °F /  5.2 °C 30.1in /  1019.6hPa West 4mph /  6.4km/h 7mph /  11.3km/h 62% 0in /  0.0mm 105 W/m2
14:24 54 °F /  12.2 °C 42.1 °F /  5.6 °C 30.1in /  1019.6hPa West 4mph /  6.4km/h 5mph /  8km/h 64% 0in /  0.0mm 83 W/m2
14:29 54.1 °F /  12.3 °C 42.3 °F /  5.7 °C 30.1in /  1019.6hPa West 2mph /  3.2km/h 6mph /  9.7km/h 64% 0in /  0.0mm 62 W/m2
14:34 54.1 °F /  12.3 °C 41.9 °F /  5.5 °C 30.1in /  1019.6hPa West 4mph /  6.4km/h 8mph /  12.9km/h 63% 0in /  0.0mm 58 W/m2
14:39 54.1 °F /  12.3 °C 41.9 °F /  5.5 °C 30.1in /  1019.6hPa WSW 4.9mph /  7.9km/h 7mph /  11.3km/h 63% 0in /  0.0mm 70 W/m2
14:44 54 °F /  12.2 °C 39.9 °F /  4.4 °C 30.1in /  1019.6hPa NNW 0.9mph /  1.4km/h 8mph /  12.9km/h 59% 0in /  0.0mm 70 W/m2
14:49 54.3 °F /  12.4 °C 42.1 °F /  5.6 °C 30.1in /  1019.6hPa WSW 4.9mph /  7.9km/h 7mph /  11.3km/h 63% 0in /  0.0mm 91 W/m2
14:54 54.3 °F /  12.4 °C 40.8 °F /  4.9 °C 30.1in /  1019.6hPa West 4mph /  6.4km/h 8mph /  12.9km/h 60% 0in /  0.0mm 100 W/m2
14:59 54.1 °F /  12.3 °C 41.4 °F /  5.2 °C 30.1in /  1019.3hPa West 2.9mph /  4.7km/h 7mph /  11.3km/h 62% 0in /  0.0mm 148 W/m2
15:04 54.1 °F /  12.3 °C 41.4 °F /  5.2 °C 30.1in /  1019.6hPa West 2mph /  3.2km/h 8mph /  12.9km/h 62% 0in /  0.0mm 213 W/m2
15:09 54.3 °F /  12.4 °C 42.1 °F /  5.6 °C 30.1in /  1019.3hPa West 4mph /  6.4km/h 7mph /  11.3km/h 63% 0in /  0.0mm 288 W/m2
15:14 54.7 °F /  12.6 °C 41 °F /  5 °C 30.1in /  1019.3hPa West 4mph /  6.4km/h 11mph /  17.7km/h 60% 0in /  0.0mm 279 W/m2
15:19 54.7 °F /  12.6 °C 41.5 °F /  5.3 °C 30.1in /  1019.3hPa NW 2mph /  3.2km/h 5mph /  8km/h 61% 0in /  0.0mm 144 W/m2
15:24 54.5 °F /  12.5 °C 41.7 °F /  5.4 °C 30.1in /  1019.3hPa WNW 4mph /  6.4km/h 11mph /  17.7km/h 62% 0in /  0.0mm 156 W/m2
15:29 54.5 °F /  12.5 °C 42.1 °F /  5.6 °C 30.1in /  1019.3hPa WNW 2.9mph /  4.7km/h 7mph /  11.3km/h 63% 0in /  0.0mm 202 W/m2
15:34 54.7 °F /  12.6 °C 42.3 °F /  5.7 °C 30.1in /  1019.6hPa West 4mph /  6.4km/h 6mph /  9.7km/h 63% 0in /  0.0mm 204 W/m2
15:39 54.7 °F /  12.6 °C 42.3 °F /  5.7 °C 30.1in /  1019.6hPa West 4mph /  6.4km/h 8mph /  12.9km/h 63% 0in /  0.0mm 230 W/m2
15:44 54.9 °F /  12.7 °C 41.7 °F /  5.4 °C 30.1in /  1019.3hPa NNW 0.9mph /  1.4km/h 5mph /  8km/h 61% 0in /  0.0mm 77 W/m2
15:49 54.9 °F /  12.7 °C 41.2 °F /  5.1 °C 30.1in /  1019.3hPa NW 2mph /  3.2km/h 4mph /  6.4km/h 60% 0in /  0.0mm 104 W/m2
15:54 55 °F /  12.8 °C 41.4 °F /  5.2 °C 30.1in /  1019.3hPa NW 0.9mph /  1.4km/h 4mph /  6.4km/h 60% 0in /  0.0mm 171 W/m2
15:59 55 °F /  12.8 °C 41 °F /  5 °C 30.1in /  1019.3hPa WNW 2.9mph /  4.7km/h 6mph /  9.7km/h 59% 0in /  0.0mm 141 W/m2
16:04 55 °F /  12.8 °C 41 °F /  5 °C 30.1in /  1019.6hPa WSW 4mph /  6.4km/h 9mph /  14.5km/h 59% 0in /  0.0mm 165 W/m2
16:09 54.9 °F /  12.7 °C 40.8 °F /  4.9 °C 30.1in /  1019.6hPa NW 4.9mph /  7.9km/h 6mph /  9.7km/h 59% 0in /  0.0mm 202 W/m2
16:14 55 °F /  12.8 °C 40.5 °F /  4.7 °C 30.1in /  1019.6hPa West 4mph /  6.4km/h 8mph /  12.9km/h 58% 0in /  0.0mm 401 W/m2
16:19 55.4 °F /  13 °C 40.8 °F /  4.9 °C 30.1in /  1019.3hPa WNW 8.1mph /  13km/h 8mph /  12.9km/h 58% 0in /  0.0mm 490 W/m2
16:24 55.6 °F /  13.1 °C 41.5 °F /  5.3 °C 30.1in /  1019.3hPa West 4mph /  6.4km/h 6mph /  9.7km/h 59% 0in /  0.0mm 174 W/m2
16:29 55.6 °F /  13.1 °C 41 °F /  5 °C 30.1in /  1019.3hPa WNW 2.9mph /  4.7km/h 8mph /  12.9km/h 58% 0in /  0.0mm 455 W/m2
16:34 55.6 °F /  13.1 °C 41.5 °F /  5.3 °C 30.1in /  1019.3hPa West 2.9mph /  4.7km/h 5mph /  8km/h 59% 0in /  0.0mm 141 W/m2
16:39 55.2 °F /  12.9 °C 41.5 °F /  5.3 °C 30.1in /  1019.3hPa NW 6.9mph /  11.1km/h 10mph /  16.1km/h 60% 0in /  0.0mm 91 W/m2
16:44 54.7 °F /  12.6 °C 41.5 °F /  5.3 °C 30.1in /  1019.6hPa WNW 4.9mph /  7.9km/h 9mph /  14.5km/h 61% 0in /  0.0mm 70 W/m2
16:49 54.1 °F /  12.3 °C 41.9 °F /  5.5 °C 30.1in /  1019.6hPa West 4mph /  6.4km/h 6mph /  9.7km/h 63% 0in /  0.0mm 69 W/m2
16:54 54 °F /  12.2 °C 41.7 °F /  5.4 °C 30.1in /  1019.6hPa WSW 4.9mph /  7.9km/h 8mph /  12.9km/h 63% 0in /  0.0mm 70 W/m2
16:59 54 °F /  12.2 °C 42.1 °F /  5.6 °C 30.1in /  1019.6hPa WNW 4mph /  6.4km/h 6mph /  9.7km/h 64% 0in /  0.0mm 86 W/m2
17:04 53.8 °F /  12.1 °C 42.3 °F /  5.7 °C 30.1in /  1019.6hPa West 2mph /  3.2km/h 4mph /  6.4km/h 65% 0in /  0.0mm 118 W/m2
17:09 54 °F /  12.2 °C 42.4 °F /  5.8 °C 30.1in /  1019.6hPa WNW 2mph /  3.2km/h 8mph /  12.9km/h 65% 0in /  0.0mm 113 W/m2
17:14 54 °F /  12.2 °C 42.8 °F /  6 °C 30.1in /  1019.6hPa WSW 4.9mph /  7.9km/h 9mph /  14.5km/h 66% 0in /  0.0mm 93 W/m2
17:19 54 °F /  12.2 °C 42.8 °F /  6 °C 30.1in /  1019.6hPa West 4mph /  6.4km/h 9mph /  14.5km/h 66% 0in /  0.0mm 91 W/m2
17:24 53.6 °F /  12 °C 42.4 °F /  5.8 °C 30.1in /  1019.6hPa WNW 4.9mph /  7.9km/h 8mph /  12.9km/h 66% 0in /  0.0mm 97 W/m2
17:30 53.8 °F /  12.1 °C 42.6 °F /  5.9 °C 30.1in /  1019.6hPa NW 2mph /  3.2km/h 8mph /  12.9km/h 66% 0in /  0.0mm 86 W/m2
17:35 53.8 °F /  12.1 °C 43.5 °F /  6.4 °C 30.1in /  1019.6hPa West 2.9mph /  4.7km/h 8mph /  12.9km/h 68% 0in /  0.0mm 81 W/m2
17:40 53.2 °F /  11.8 °C 43.7 °F /  6.5 °C 30.1in /  1019.6hPa West 4mph /  6.4km/h 9mph /  14.5km/h 70% 0in /  0.0mm 90 W/m2
17:45 53.1 °F /  11.7 °C 44.2 °F /  6.8 °C 30.1in /  1019.6hPa West 2.9mph /  4.7km/h 5mph /  8km/h 72% 0in /  0.0mm 83 W/m2
17:50 52.9 °F /  11.6 °C 44.4 °F /  6.9 °C 30.1in /  1019.6hPa NW 4mph /  6.4km/h 10mph /  16.1km/h 73% 0in /  0.0mm 65 W/m2
17:55 52.3 °F /  11.3 °C 43.9 °F /  6.6 °C 30.1in /  1019.6hPa WNW 4mph /  6.4km/h 7mph /  11.3km/h 73% 0in /  0.0mm 60 W/m2
18:00 52.3 °F /  11.3 °C 44.2 °F /  6.8 °C 30.1in /  1019.6hPa West 6mph /  9.7km/h 7mph /  11.3km/h 74% 0in /  0.0mm 51 W/m2
18:05 52.2 °F /  11.2 °C 44.1 °F /  6.7 °C 30.1in /  1019.6hPa WSW 2mph /  3.2km/h 5mph /  8km/h 74% 0in /  0.0mm 44 W/m2
18:10 52 °F /  11.1 °C 43.9 °F /  6.6 °C 30.1in /  1019.6hPa West 6mph /  9.7km/h 7mph /  11.3km/h 74% 0in /  0.0mm 40 W/m2
18:15 52 °F /  11.1 °C 44.2 °F /  6.8 °C 30.1in /  1019.6hPa West 2.9mph /  4.7km/h 5mph /  8km/h 75% 0in /  0.0mm 35 W/m2
18:20 51.8 °F /  11 °C 44.1 °F /  6.7 °C 30.1in /  1020.0hPa West 2.9mph /  4.7km/h 7mph /  11.3km/h 75% 0in /  0.0mm 32 W/m2
18:25 51.6 °F /  10.9 °C 43.9 °F /  6.6 °C 30.1in /  1020.0hPa West 2mph /  3.2km/h 6mph /  9.7km/h 75% 0in /  0.0mm 25 W/m2
18:30 51.6 °F /  10.9 °C 44.2 °F /  6.8 °C 30.1in /  1020.0hPa WNW 2.9mph /  4.7km/h 7mph /  11.3km/h 76% 0in /  0.0mm 18 W/m2
18:35 51.4 °F /  10.8 °C 44.4 °F /  6.9 °C 30.1in /  1020.0hPa West 2.9mph /  4.7km/h 7mph /  11.3km/h 77% 0in /  0.0mm 12 W/m2
18:40 51.3 °F /  10.7 °C 44.6 °F /  7 °C 30.1in /  1020.0hPa West 2mph /  3.2km/h 4mph /  6.4km/h 78% 0in /  0.0mm 11 W/m2
18:45 51.1 °F /  10.6 °C 44.4 °F /  6.9 °C 30.1in /  1020.0hPa West 2mph /  3.2km/h 4mph /  6.4km/h 78% 0in /  0.0mm 7 W/m2
18:50 50.9 °F /  10.5 °C 44.6 °F /  7 °C 30.1in /  1020.0hPa West 2.9mph /  4.7km/h 3mph /  4.8km/h 79% 0in /  0.0mm 5 W/m2
18:55 50.7 °F /  10.4 °C 44.4 °F /  6.9 °C 30.1in /  1020.0hPa West 2.9mph /  4.7km/h 4mph /  6.4km/h 79% 0in /  0.0mm 0 W/m2
19:00 50.4 °F /  10.2 °C 44.1 °F /  6.7 °C 30.1in /  1020.0hPa West 2mph /  3.2km/h 7mph /  11.3km/h 79% 0in /  0.0mm 0 W/m2
19:05 50.2 °F /  10.1 °C 44.2 °F /  6.8 °C 30.1in /  1020.0hPa West 2mph /  3.2km/h 5mph /  8km/h 80% 0in /  0.0mm 0 W/m2
19:10 50 °F /  10 °C 44.1 °F /  6.7 °C 30.1in /  1020.0hPa WNW 4.9mph /  7.9km/h 7mph /  11.3km/h 80% 0in /  0.0mm 0 W/m2
19:15 49.8 °F /  9.9 °C 43.9 °F /  6.6 °C 30.1in /  1020.0hPa WSW 4mph /  6.4km/h 7mph /  11.3km/h 80% 0in /  0.0mm 0 W/m2
19:20 49.8 °F /  9.9 °C 43.9 °F /  6.6 °C 30.1in /  1020.3hPa West 6mph /  9.7km/h 7mph /  11.3km/h 80% 0in /  0.0mm 0 W/m2
19:25 49.8 °F /  9.9 °C 44.2 °F /  6.8 °C 30.1in /  1020.3hPa NW 4.9mph /  7.9km/h 6mph /  9.7km/h 81% 0in /  0.0mm 0 W/m2
19:30 49.8 °F /  9.9 °C 44.2 °F /  6.8 °C 30.1in /  1020.3hPa West 2.9mph /  4.7km/h 4mph /  6.4km/h 81% 0in /  0.0mm 0 W/m2
19:35 49.8 °F /  9.9 °C 44.2 °F /  6.8 °C 30.1in /  1020.3hPa West 6mph /  9.7km/h 8mph /  12.9km/h 81% 0in /  0.0mm 0 W/m2
19:40 49.8 °F /  9.9 °C 44.2 °F /  6.8 °C 30.1in /  1020.3hPa WNW 4.9mph /  7.9km/h 7mph /  11.3km/h 81% 0in /  0.0mm 0 W/m2
19:45 49.8 °F /  9.9 °C 44.2 °F /  6.8 °C 30.1in /  1020.3hPa West 6mph /  9.7km/h 8mph /  12.9km/h 81% 0in /  0.0mm 0 W/m2
19:50 49.8 °F /  9.9 °C 44.2 °F /  6.8 °C 30.1in /  1020.3hPa West 2.9mph /  4.7km/h 5mph /  8km/h 81% 0in /  0.0mm 0 W/m2
19:55 49.6 °F /  9.8 °C 44.4 °F /  6.9 °C 30.1in /  1020.3hPa West 8mph /  12.9km/h 8mph /  12.9km/h 82% 0in /  0.0mm 0 W/m2
20:00 49.6 °F /  9.8 °C 44.4 °F /  6.9 °C 30.1in /  1020.7hPa West 2mph /  3.2km/h 5mph /  8km/h 82% 0in /  0.0mm 0 W/m2
20:05 49.6 °F /  9.8 °C 44.4 °F /  6.9 °C 30.1in /  1020.7hPa WSW 2.9mph /  4.7km/h 4mph /  6.4km/h 82% 0in /  0.0mm 0 W/m2
20:10 49.6 °F /  9.8 °C 44.4 °F /  6.9 °C 30.1in /  1020.7hPa West 2mph /  3.2km/h 4mph /  6.4km/h 82% 0in /  0.0mm 0 W/m2
20:15 49.5 °F /  9.7 °C 44.6 °F /  7 °C 30.1in /  1020.7hPa West 6mph /  9.7km/h 6mph /  9.7km/h 83% 0in /  0.0mm 0 W/m2
20:20 49.3 °F /  9.6 °C 44.4 °F /  6.9 °C 30.1in /  1020.7hPa West 2mph /  3.2km/h 4mph /  6.4km/h 83% 0in /  0.0mm 0 W/m2
20:25 49.3 °F /  9.6 °C 44.6 °F /  7 °C 30.1in /  1020.7hPa West 4mph /  6.4km/h 6mph /  9.7km/h 84% 0in /  0.0mm 0 W/m2
20:30 48.9 °F /  9.4 °C 44.2 °F /  6.8 °C 30.1in /  1020.7hPa West 2mph /  3.2km/h 6mph /  9.7km/h 84% 0in /  0.0mm 0 W/m2
20:35 48.9 °F /  9.4 °C 44.2 °F /  6.8 °C 30.1in /  1020.7hPa WNW 2.9mph /  4.7km/h 6mph /  9.7km/h 84% 0in /  0.0mm 0 W/m2
20:40 48.9 °F /  9.4 °C 44.6 °F /  7 °C 30.1in /  1020.7hPa WNW 2.9mph /  4.7km/h 6mph /  9.7km/h 85% 0in /  0.0mm 0 W/m2
20:45 48.9 °F /  9.4 °C 44.6 °F /  7 °C 30.1in /  1020.7hPa West 2mph /  3.2km/h 4mph /  6.4km/h 85% 0in /  0.0mm 0 W/m2
20:50 48.9 °F /  9.4 °C 44.6 °F /  7 °C 30.2in /  1021.0hPa SW 2mph /  3.2km/h 4mph /  6.4km/h 85% 0in /  0.0mm 0 W/m2
20:55 48.7 °F /  9.3 °C 44.4 °F /  6.9 °C 30.2in /  1021.0hPa WNW 0.9mph /  1.4km/h 3mph /  4.8km/h 85% 0in /  0.0mm 0 W/m2
21:00 48.6 °F /  9.2 °C 44.2 °F /  6.8 °C 30.2in /  1021.0hPa Calm     85% 0in /  0.0mm 0 W/m2
21:05 48.4 °F /  9.1 °C 44.1 °F /  6.7 °C 30.2in /  1021.0hPa Calm   3mph /  4.8km/h 85% 0in /  0.0mm 0 W/m2
21:10 48 °F /  8.9 °C 44.1 °F /  6.7 °C 30.2in /  1021.0hPa WNW 0.9mph /  1.4km/h 2mph /  3.2km/h 86% 0in /  0.0mm 0 W/m2
21:15 47.7 °F /  8.7 °C 43.7 °F /  6.5 °C 30.2in /  1021.0hPa WNW 2mph /  3.2km/h 2mph /  3.2km/h 86% 0in /  0.0mm 0 W/m2
21:20 47.5 °F /  8.6 °C 44.1 °F /  6.7 °C 30.2in /  1021.0hPa WNW 2mph /  3.2km/h 4mph /  6.4km/h 88% 0in /  0.0mm 0 W/m2
21:25 47.8 °F /  8.8 °C 44.4 °F /  6.9 °C 30.2in /  1021.0hPa WNW 2mph /  3.2km/h 3mph /  4.8km/h 88% 0in /  0.0mm 0 W/m2
21:30 48 °F /  8.9 °C 44.6 °F /  7 °C 30.2in /  1021.0hPa WNW 2mph /  3.2km/h 4mph /  6.4km/h 88% 0in /  0.0mm 0 W/m2
21:35 48.4 °F /  9.1 °C 44.8 °F /  7.1 °C 30.2in /  1021.0hPa WNW 2mph /  3.2km/h 6mph /  9.7km/h 87% 0in /  0.0mm 0 W/m2
21:40 48.6 °F /  9.2 °C 44.8 °F /  7.1 °C 30.2in /  1021.0hPa West 2mph /  3.2km/h 4mph /  6.4km/h 87% 0in /  0.0mm 0 W/m2
21:45 48.6 °F /  9.2 °C 44.8 °F /  7.1 °C 30.2in /  1021.0hPa WNW 2mph /  3.2km/h 3mph /  4.8km/h 87% 0in /  0.0mm 0 W/m2
21:50 48.7 °F /  9.3 °C 45 °F /  7.2 °C 30.2in /  1021.0hPa West 2.9mph /  4.7km/h 6mph /  9.7km/h 87% 0in /  0.0mm 0 W/m2
21:55 48.7 °F /  9.3 °C 44.8 °F /  7.1 °C 30.2in /  1021.0hPa West 2.9mph /  4.7km/h 4mph /  6.4km/h 86% 0in /  0.0mm 0 W/m2
22:00 48.7 °F /  9.3 °C 44.8 °F /  7.1 °C 30.2in /  1021.3hPa West 2.9mph /  4.7km/h 7mph /  11.3km/h 86% 0in /  0.0mm 0 W/m2
22:05 48.7 °F /  9.3 °C 44.8 °F /  7.1 °C 30.2in /  1021.0hPa WSW 4mph /  6.4km/h 6mph /  9.7km/h 86% 0in /  0.0mm 0 W/m2
22:10 48.7 °F /  9.3 °C 44.8 °F /  7.1 °C 30.2in /  1021.3hPa WSW 2.9mph /  4.7km/h 4mph /  6.4km/h 86% 0in /  0.0mm 0 W/m2
22:15 48.6 °F /  9.2 °C 44.6 °F /  7 °C 30.2in /  1021.3hPa West 2mph /  3.2km/h 4mph /  6.4km/h 86% 0in /  0.0mm 0 W/m2
22:20 48.6 °F /  9.2 °C 44.6 °F /  7 °C 30.2in /  1021.3hPa WNW 0.9mph /  1.4km/h 3mph /  4.8km/h 86% 0in /  0.0mm 0 W/m2
22:25 48.4 °F /  9.1 °C 44.4 °F /  6.9 °C 30.2in /  1021.3hPa WSW 2mph /  3.2km/h 6mph /  9.7km/h 86% 0in /  0.0mm 0 W/m2
22:31 48.4 °F /  9.1 °C 44.4 °F /  6.9 °C 30.2in /  1021.3hPa West 4mph /  6.4km/h 4mph /  6.4km/h 86% 0in /  0.0mm 0 W/m2
22:36 48.4 °F /  9.1 °C 44.4 °F /  6.9 °C 30.2in /  1021.3hPa West 7mph /  11.3km/h 7mph /  11.3km/h 86% 0in /  0.0mm 0 W/m2
22:41 48.4 °F /  9.1 °C 44.4 °F /  6.9 °C 30.2in /  1021.3hPa WNW 2mph /  3.2km/h 4mph /  6.4km/h 86% 0in /  0.0mm 0 W/m2
22:46 48.4 °F /  9.1 °C 44.4 °F /  6.9 °C 30.2in /  1021.3hPa WSW 4mph /  6.4km/h 4mph /  6.4km/h 86% 0in /  0.0mm 0 W/m2
22:51 48.4 °F /  9.1 °C 44.4 °F /  6.9 °C 30.2in /  1021.3hPa WSW 2mph /  3.2km/h 4mph /  6.4km/h 86% 0in /  0.0mm 0 W/m2
22:56 48.2 °F /  9 °C 44.2 °F /  6.8 °C 30.2in /  1021.3hPa West 2mph /  3.2km/h 4mph /  6.4km/h 86% 0in /  0.0mm 0 W/m2
23:01 48.2 °F /  9 °C 44.2 °F /  6.8 °C 30.2in /  1021.3hPa WNW 2mph /  3.2km/h 4mph /  6.4km/h 86% 0in /  0.0mm 0 W/m2
23:06 48.4 °F /  9.1 °C 44.4 °F /  6.9 °C 30.2in /  1021.3hPa WNW 2.9mph /  4.7km/h 6mph /  9.7km/h 86% 0in /  0.0mm 0 W/m2
23:11 48.4 °F /  9.1 °C 44.4 °F /  6.9 °C 30.2in /  1021.3hPa West 2.9mph /  4.7km/h 3mph /  4.8km/h 86% 0in /  0.0mm 0 W/m2
23:16 48.4 °F /  9.1 °C 44.4 °F /  6.9 °C 30.2in /  1021.3hPa West 2.9mph /  4.7km/h 6mph /  9.7km/h 86% 0in /  0.0mm 0 W/m2
23:21 48.6 °F /  9.2 °C 44.6 °F /  7 °C 30.2in /  1021.3hPa West 2.9mph /  4.7km/h 4mph /  6.4km/h 86% 0in /  0.0mm 0 W/m2
23:26 48.6 °F /  9.2 °C 44.6 °F /  7 °C 30.2in /  1021.3hPa WSW 2mph /  3.2km/h 3mph /  4.8km/h 86% 0in /  0.0mm 0 W/m2
23:31 48.6 °F /  9.2 °C 44.6 °F /  7 °C 30.2in /  1021.3hPa WSW 2mph /  3.2km/h 4mph /  6.4km/h 86% 0in /  0.0mm 0 W/m2
23:36 48.7 °F /  9.3 °C 44.8 °F /  7.1 °C 30.2in /  1021.3hPa West 2.9mph /  4.7km/h 3mph /  4.8km/h 86% 0in /  0.0mm 0 W/m2
23:41 48.7 °F /  9.3 °C 44.8 °F /  7.1 °C 30.2in /  1021.3hPa West 2.9mph /  4.7km/h 6mph /  9.7km/h 86% 0in /  0.0mm 0 W/m2
23:46 48.7 °F /  9.3 °C 44.8 °F /  7.1 °C 30.2in /  1021.0hPa West 2.9mph /  4.7km/h 3mph /  4.8km/h 86% 0in /  0.0mm 0 W/m2
23:51 48.6 °F /  9.2 °C 44.6 °F /  7 °C 30.2in /  1021.0hPa West 0.9mph /  1.4km/h 6mph /  9.7km/h 86% 0in /  0.0mm 0 W/m2
23:56 48.6 °F /  9.2 °C 44.6 °F /  7 °C 30.2in /  1021.0hPa West 2mph /  3.2km/h 4mph /  6.4km/h 86% 0in /  0.0mm 0 W/m2
Juneau County Weather
Compliments of Weather Underground - 2 mb